Latest Weather Observations for Lake Grace

IDW60801

Issued at 3:35 pm WST Wednesday 3 September 2014 (issued every 30 minutes, with the page automatically refreshed every 10 minutes)

About weather observations | Map of weather stations | Latest weather observations for WA | Other Formats
Station Details ID: 010911 Name: LAKE GRACE Lat: -33.10 Lon: 118.46 Height: 286.0 m
Data from the previous 72 hours. | See also: Recent months at Lake Grace
Date/Time
WST
Temp
°C
App
Temp
°C
Dew
Point
Rel
Hum
%
Delta-T
°C
Wind Press
QNH
hPa
Press
MSL
hPa
Rain
since 9 am
mm
Dir
 
Spd
km/h
Gust
km/h
Spd
kts
Gust
kts
03/03:30pm 16.6 12.8 5.6 48 5.4 SE 15 24 8 13 1022.0 1021.9 0.0
03/03:00pm 16.6 11.8 4.9 46 5.6 SSE 19 24 10 13 1021.7 1021.6 0.0
03/02:30pm 16.9 12.7 5.8 48 5.5 SSE 17 30 9 16 1021.8 1021.7 0.0
03/02:00pm 16.7 12.5 5.9 49 5.3 SSE 17 30 9 16 1021.9 1021.8 0.0
03/01:30pm 16.0 11.1 5.3 49 5.2 SE 20 30 11 16 1021.6 1021.5 0.0
03/01:00pm 16.4 12.3 6.2 51 5.0 SSE 17 28 9 15 1022.3 1022.2 0.0
03/12:30pm 15.4 10.6 4.8 49 5.1 SE 19 28 10 15 1022.3 1022.2 0.0
03/12:00pm 15.6 11.4 5.8 52 4.8 SSE 17 28 9 15 1022.6 1022.5 0.0
03/11:30am 14.4 10.6 5.7 56 4.2 SSE 15 20 8 11 1023.1 1023.1 0.0
03/11:00am 15.1 12.0 7.4 60 3.8 S 13 24 7 13 1023.2 1023.2 0.0
03/10:30am 14.1 11.0 7.4 64 3.3 S 13 24 7 13 1023.1 1023.1 0.0
03/10:00am 12.8 9.8 7.5 70 2.6 S 13 20 7 11 1023.2 1023.2 0.0
03/09:30am 12.6 9.7 8.1 74 2.3 S 13 19 7 10 1023.3 1023.3 0.0
03/09:00am 11.6 8.9 9.0 84 1.3 S 13 19 7 10 1023.0 1023.0 0.0
03/08:30am 10.5 7.8 9.1 91 0.7 S 13 19 7 10 1022.8 1022.8 0.0
03/08:00am 10.1 7.4 9.0 93 0.5 S 13 19 7 10 1022.3 1022.2 0.0
03/07:30am 10.1 8.2 9.0 93 0.6 S 9 17 5 9 1022.1 1022.0 0.0
03/07:00am 8.8 7.1 7.7 93 0.5 SSE 6 9 3 5 1021.8 1021.7 0.0
03/06:30am 9.1 7.5 7.9 92 0.6 SSE 6 7 3 4 1021.7 1021.6 0.0
03/06:00am 9.9 7.9 8.5 91 0.7 S 9 11 5 6 1021.3 1021.2 0.0
03/05:30am 10.9 9.1 9.3 90 0.8 S 9 13 5 7 1021.0 1020.9 0.0
03/05:00am 11.7 10.1 10.1 90 0.8 SSW 9 15 5 8 1020.6 1020.5 0.0
03/04:30am 11.7 9.7 10.3 91 0.7 S 11 17 6 9 1020.4 1020.4 0.0
03/04:00am 11.6 9.3 10.3 92 0.7 S 13 24 7 13 1020.0 1020.0 0.0
03/03:30am 11.3 9.7 10.2 93 0.6 S 9 15 5 8 1019.7 1019.7 0.0
03/03:00am 10.6 10.5 9.5 93 0.6 CALM 0 0 0 0 1019.5 1019.4 0.0
03/02:30am 10.0 9.8 8.9 93 0.6 CALM 0 0 0 0 1019.3 1019.2 0.0
03/02:00am 10.1 9.9 8.9 92 0.6 CALM 0 0 0 0 1019.5 1019.4 0.0
03/01:30am 10.5 9.2 9.1 91 0.7 SSE 6 7 3 4 1019.4 1019.3 0.0
03/01:00am 11.1 9.9 9.5 90 0.8 S 6 9 3 5 1019.7 1019.7 0.0
03/12:30am 11.5 10.2 9.8 89 0.9 S 7 11 4 6 1019.5 1019.4 0.0
03/12:00am 11.9 11.2 10.0 88 1.0 S 4 9 2 5 1019.3 1019.2 0.0
 
Date/Time
WST
Temp
°C
App
Temp
°C
Dew
Point
Rel
Hum
%
Delta-T
°C
Wind Press
QNH
hPa
Press
MSL
hPa
Rain
since 9 am
mm
Dir
 
Spd
km/h
Gust
km/h
Spd
kts
Gust
kts
02/11:30pm 12.5 12.6 10.2 86 1.2 CALM 0 7 0 4 1019.0 1018.9 0.0
02/11:00pm 13.2 12.3 10.7 85 1.3 SSE 6 9 3 5 1019.3 1019.2 0.0
02/10:30pm 13.8 13.0 11.0 83 1.5 SE 6 7 3 4 1019.2 1019.1 0.0
02/10:00pm 14.6 13.3 11.4 81 1.7 SSW 9 15 5 8 1019.3 1019.2 0.0
02/09:30pm 14.7 13.8 11.5 81 1.7 WSW 7 13 4 7 1019.3 1019.2 0.0
02/09:00pm 13.9 13.1 10.9 82 1.6 NNW 6 9 3 5 1019.0 1018.9 0.0
02/08:30pm 14.3 14.6 10.9 80 1.8 CALM 0 0 0 0 1018.7 1018.6 0.0
02/08:00pm 14.9 14.0 10.5 75 2.3 WNW 6 7 3 4 1018.4 1018.3 0.0
02/07:30pm 14.5 13.5 10.9 79 1.9 NW 7 9 4 5 1018.0 1017.9 0.0
02/07:00pm 14.8 13.4 11.0 78 2.0 NNW 9 13 5 7 1017.9 1017.8 0.0
02/06:30pm 15.3 14.2 10.7 74 2.5 WNW 7 9 4 5 1017.1 1017.0 0.0
02/06:00pm 15.4 14.3 10.8 74 2.5 NNW 7 9 4 5 1016.4 1016.3 0.0
02/05:30pm 15.9 14.6 11.1 73 2.6 N 9 13 5 7 1015.8 1015.7 0.0
02/05:00pm 16.4 14.6 10.9 70 3.0 N 11 15 6 8 1015.8 1015.7 0.0
02/04:30pm 16.7 14.2 11.2 70 3.0 N 15 17 8 9 1015.9 1015.8 0.0
02/04:00pm 16.4 14.8 11.6 73 2.6 N 11 13 6 7 1016.2 1016.1 0.0
02/03:30pm 16.8 16.1 11.3 70 3.0 N 6 7 3 4 1015.7 1015.6 0.0
02/03:00pm 17.1 15.3 10.7 66 3.5 NNW 11 15 6 8 1015.8 1015.7 0.0
02/02:30pm 17.2 15.0 10.8 66 3.5 N 13 20 7 11 1015.6 1015.5 0.0
02/02:00pm 17.5 15.1 9.9 61 4.1 NNW 13 20 7 11 1015.4 1015.3 0.0
02/01:30pm 17.1 14.2 9.8 62 3.9 N 15 24 8 13 1015.7 1015.6 0.0
02/01:00pm 17.3 13.0 9.2 59 4.3 NNW 22 33 12 18 1016.3 1016.2 0.0
02/12:30pm 17.0 13.6 9.2 60 4.1 N 17 24 9 13 1015.8 1015.7 0.0
02/12:00pm 16.3 11.4 8.5 60 4.0 N 24 32 13 17 1016.9 1016.8 0.0
02/11:30am 15.9 11.4 8.6 62 3.8 N 22 32 12 17 1017.3 1017.2 0.0
02/11:00am 15.8 11.9 8.5 62 3.8 NNE 19 30 10 16 1016.9 1016.8 0.0
02/10:30am 14.8 10.8 8.1 64 3.4 N 19 28 10 15 1018.5 1018.4 0.0
02/10:00am 14.4 10.6 7.7 64 3.4 N 17 26 9 14 1019.2 1019.1 0.0
02/09:30am 13.9 10.4 7.0 63 3.4 N 15 20 8 11 1019.5 1019.4 0.0
02/09:00am 13.6 11.0 7.6 67 3.0 N 11 17 6 9 1019.1 1019.0 0.2
02/08:30am 12.7 10.0 7.2 69 2.7 N 11 15 6 8 1019.2 1019.1 0.2
02/08:00am 12.1 8.8 6.4 68 2.7 NNE 13 20 7 11 1018.7 1018.6 0.2
02/07:30am 11.2 7.9 6.5 73 2.3 NNE 13 19 7 10 1018.4 1018.3 0.2
02/07:00am 10.4 7.9 6.5 77 1.9 N 9 15 5 8 1019.1 1019.0 0.2
02/06:30am 10.1 7.1 6.1 76 1.9 NNE 11 17 6 9 1018.7 1018.6 0.2
02/06:00am 10.2 6.8 6.0 75 2.0 NNE 13 20 7 11 1018.5 1018.4 0.2
02/05:30am 9.9 7.9 6.2 78 1.7 NE 6 9 3 5 1018.6 1018.5 0.2
02/05:00am 9.5 7.2 5.7 77 1.8 N 7 11 4 6 1018.8 1018.7 0.2
02/04:30am 10.0 7.7 5.0 71 2.3 N 6 9 3 5 1018.7 1018.6 0.0
02/04:00am 10.6 7.6 3.9 63 3.0 NE 9 15 5 8 1018.8 1018.7 0.0
02/03:30am 10.5 7.9 4.0 64 2.9 E 7 11 4 6 1018.7 1018.6 0.0
02/03:00am 10.2 6.4 3.9 65 2.8 ENE 13 19 7 10 1019.1 1019.0 0.0
02/02:30am 10.2 6.4 4.1 66 2.7 NE 13 20 7 11 1019.7 1019.7 0.0
02/02:00am 10.0 5.8 4.0 66 2.7 NE 15 20 8 11 1019.9 1019.9 0.0
02/01:30am 10.0 5.5 4.0 66 2.7 ENE 17 24 9 13 1020.1 1020.1 0.0
02/01:00am 9.7 5.9 3.9 67 2.6 ENE 13 19 7 10 1020.6 1020.5 0.0
02/12:30am 10.0 5.4 3.7 65 2.8 E 17 22 9 12 1020.8 1020.7 0.0
02/12:00am 9.9 6.0 3.6 65 2.8 E 13 20 7 11 1021.2 1021.1 0.0
 
Date/Time
WST
Temp
°C
App
Temp
°C
Dew
Point
Rel
Hum
%
Delta-T
°C
Wind Press
QNH
hPa
Press
MSL
hPa
Rain
since 9 am
mm
Dir
 
Spd
km/h
Gust
km/h
Spd
kts
Gust
kts
01/11:30pm 9.5 6.1 3.9 68 2.5 E 11 15 6 8 1021.7 1021.6 0.0
01/11:00pm 9.8 6.0 4.0 67 2.6 ENE 13 17 7 9 1021.9 1021.8 0.0
01/10:30pm 10.1 6.6 3.6 64 2.9 E 11 17 6 9 1022.2 1022.1 0.0
01/10:00pm 8.6 5.6 4.2 74 1.9 SE 9 11 5 6 1022.2 1022.1 0.0
01/09:30pm 8.5 5.9 4.1 74 2.0 SSE 7 9 4 5 1022.5 1022.4 0.0
01/09:00pm 9.1 6.1 4.1 71 2.2 SE 9 13 5 7 1022.6 1022.5 0.0
01/08:30pm 9.6 7.0 4.0 68 2.5 S 7 9 4 5 1023.1 1023.1 0.0
01/08:00pm 11.3 8.4 2.6 55 3.8 E 7 11 4 6 1022.6 1022.5 0.0
01/07:30pm 10.5 8.5 4.4 66 2.8 ESE 4 7 2 4 1022.9 1022.9 0.0
01/07:00pm 11.1 8.8 4.8 65 2.9 SE 6 7 3 4 1022.5 1022.4 0.0
01/06:30pm 12.0 10.8 4.5 60 3.5 CALM 0 0 0 0 1022.6 1022.5 0.0
01/06:00pm 13.2 10.5 2.7 49 4.7 E 6 7 3 4 1022.3 1022.2 0.0
01/05:30pm 13.8 10.9 2.4 46 5.1 NE 7 9 4 5 1022.3 1022.2 0.0
01/05:00pm 14.5 11.1 2.1 43 5.5 NNE 9 15 5 8 1022.4 1022.3 0.0
01/04:30pm 15.6 11.5 2.1 40 6.1 N 13 19 7 10 1022.3 1022.2 0.0
01/04:00pm 15.8 12.4 -0.8 32 7.0 NE 7 11 4 6 1022.0 1021.9 0.0
01/03:30pm 15.7 11.8 -1.4 31 7.2 N 9 15 5 8 1022.1 1022.0 0.0
01/03:00pm 15.5 10.9 -1.1 32 7.0 N 13 19 7 10 1022.0 1021.9 0.0
01/02:30pm 15.2 11.5 0.2 36 6.5 ENE 9 17 5 9 1022.3 1022.2 0.0
01/02:00pm 15.1 10.8 3.0 44 5.5 NNE 15 24 8 13 1022.8 1022.8 0.0
01/01:30pm 15.0 10.9 2.2 42 5.8 NNE 13 22 7 12 1022.9 1022.9 0.0
01/01:00pm 14.7 11.0 2.6 44 5.5 ENE 11 19 6 10 1023.3 1023.3 0.0
01/12:30pm 14.3 10.4 1.2 41 5.7 NNE 11 17 6 9 1023.8 1023.8 0.0
01/12:00pm 14.5 10.8 4.2 50 4.8 ENE 13 20 7 11 1024.0 1024.0 0.0
01/11:30am 13.6 9.6 4.7 55 4.2 ENE 15 22 8 12 1024.7 1024.6 0.0
01/11:00am 13.0 8.6 4.9 58 3.8 ENE 17 22 9 12 1025.0 1024.9 0.0
01/10:30am 12.4 8.2 5.8 64 3.1 NE 17 26 9 14 1025.0 1024.9 0.0
01/10:00am 11.4 7.5 7.1 75 2.1 NE 17 24 9 13 1025.4 1025.3 0.0
01/09:30am 10.5 7.8 7.2 80 1.6 ENE 11 19 6 10 1025.4 1025.3 0.0
01/09:00am 9.3 7.2 8.2 93 0.5 E 9 13 5 7 1025.6 1025.5 0.0
01/08:30am 7.3 6.5 6.7 96 0.3 CALM 0 0 0 0 1025.5 1025.4 0.0
01/08:00am 6.1 5.1 5.7 97 0.2 CALM 0 0 0 0 1025.2 1025.1 0.0
01/07:30am 4.5 2.0 3.9 96 0.3 NNW 6 9 3 5 1025.0 1025.1 0.0
01/07:00am 3.6 2.1 3.0 96 0.2 CALM 0 0 0 0 1024.4 1024.5 0.0
01/06:30am 2.3 0.6 1.7 96 0.2 CALM 0 0 0 0 1023.9 1024.1 0.0
01/06:00am 2.9 1.3 2.3 96 0.2 CALM 0 0 0 0 1023.6 1023.8 0.0
01/05:30am 3.3 1.7 2.6 95 0.3 CALM 0 0 0 0 1023.7 1023.9 0.0
01/05:00am 3.6 1.7 2.9 95 0.3 SSE 2 6 1 3 1023.5 1023.7 0.0
01/04:30am 3.7 1.1 3.0 95 0.3 S 6 7 3 4 1023.1 1023.3 0.0
01/04:00am 4.0 2.6 3.3 95 0.3 CALM 0 0 0 0 1022.9 1023.1 0.0
01/03:30am 4.3 1.8 3.6 95 0.3 SE 6 7 3 4 1022.7 1022.8 0.0
01/03:00am 4.4 1.9 3.5 94 0.4 SSE 6 6 3 3 1023.0 1023.2 0.0
01/02:30am 4.8 3.5 3.9 94 0.4 CALM 0 6 0 3 1022.8 1022.9 0.0
01/02:00am 4.9 3.6 3.9 93 0.4 CALM 0 0 0 0 1022.8 1022.9 0.0
01/01:30am 5.5 4.3 4.5 93 0.4 CALM 0 0 0 0 1022.9 1023.1 0.0
01/01:00am 5.5 4.2 4.3 92 0.5 CALM 0 0 0 0 1022.9 1023.1 0.0
01/12:30am 5.5 4.2 4.2 91 0.6 CALM 0 0 0 0 1022.8 1022.9 0.0
01/12:00am 6.8 5.7 5.3 90 0.7 CALM 0 0 0 0 1022.7 1022.8 0.0
 
Date/Time
WST
Temp
°C
App
Temp
°C
Dew
Point
Rel
Hum
%
Delta-T
°C
Wind Press
QNH
hPa
Press
MSL
hPa
Rain
since 9 am
mm
Dir
 
Spd
km/h
Gust
km/h
Spd
kts
Gust
kts
31/11:30pm 7.3 5.2 5.6 89 0.8 SE 6 7 3 4 1022.5 1022.6 0.0
31/11:00pm 7.4 5.1 5.7 89 0.8 ESE 7 9 4 5 1022.6 1022.7 0.0
31/10:30pm 7.6 4.9 5.7 88 0.9 SE 9 11 5 6 1022.8 1022.9 0.0
31/10:00pm 7.8 5.1 5.8 87 0.9 SE 9 11 5 6 1022.5 1022.6 0.0
31/09:30pm 8.2 5.5 5.8 85 1.1 SSE 9 13 5 7 1022.3 1022.4 0.0
31/09:00pm 8.2 5.9 5.7 84 1.1 SSE 7 9 4 5 1022.2 1022.3 0.0
31/08:30pm 8.4 6.2 5.5 82 1.3 S 6 7 3 4 1021.6 1021.7 0.0
31/08:00pm 8.9 7.9 5.6 80 1.5 CALM 0 6 0 3 1021.6 1021.7 0.0
31/07:30pm 9.6 6.9 5.8 77 1.8 S 9 13 5 7 1021.3 1021.4 0.0
31/07:00pm 10.1 6.7 5.9 75 2.0 S 13 17 7 9 1020.8 1020.9 0.0
31/06:30pm 10.6 7.3 6.2 74 2.1 S 13 19 7 10 1020.6 1020.7 0.0
31/06:00pm 11.3 7.2 6.4 72 2.3 S 17 28 9 15 1020.6 1020.7 0.0
31/05:30pm 13.3 8.3 3.4 51 4.5 SW 19 28 10 15 1020.2 1020.4 0.0
31/05:00pm 14.9 10.4 2.1 42 5.7 WSW 15 22 8 12 1019.3 1019.4 0.0
31/04:30pm 15.2 10.8 2.7 43 5.7 W 15 22 8 12 1018.7 1018.8 0.0
31/04:00pm 15.3 10.9 2.8 43 5.7 W 15 20 8 11 1018.8 1018.9 0.0

Other Formats:

Comma delimited format used in spreadsheet applications
http://www.bom.gov.au/fwo/IDW60801/IDW60801.95637.axf

JavaScript Object Notation format (JSON) in row-major order
http://www.bom.gov.au/fwo/IDW60801/IDW60801.95637.json